sensor_id;sensor_type;location;lat;lon;timestamp;P1;durP1;ratioP1;P2;durP2;ratioP2
19521;SDS011;9905;52.126;5.596;2023-08-17T00:02:26;3.63;;;2.28;;
19521;SDS011;9905;52.126;5.596;2023-08-17T00:04:54;3.70;;;2.50;;
19521;SDS011;9905;52.126;5.596;2023-08-17T00:07:21;2.75;;;2.40;;
19521;SDS011;9905;52.126;5.596;2023-08-17T00:09:48;2.78;;;2.63;;
19521;SDS011;9905;52.126;5.596;2023-08-17T00:12:15;2.40;;;2.00;;
19521;SDS011;9905;52.126;5.596;2023-08-17T00:14:43;2.75;;;2.63;;
19521;SDS011;9905;52.126;5.596;2023-08-17T00:17:10;2.60;;;2.40;;
19521;SDS011;9905;52.126;5.596;2023-08-17T00:19:37;2.15;;;2.00;;
19521;SDS011;9905;52.126;5.596;2023-08-17T00:22:05;2.80;;;2.60;;
19521;SDS011;9905;52.126;5.596;2023-08-17T00:24:34;3.58;;;3.15;;
19521;SDS011;9905;52.126;5.596;2023-08-17T00:27:03;2.35;;;2.20;;
19521;SDS011;9905;52.126;5.596;2023-08-17T00:29:30;2.15;;;1.92;;
19521;SDS011;9905;52.126;5.596;2023-08-17T00:31:57;3.85;;;2.40;;
19521;SDS011;9905;52.126;5.596;2023-08-17T00:34:24;2.38;;;2.20;;
19521;SDS011;9905;52.126;5.596;2023-08-17T00:36:54;4.28;;;2.08;;
19521;SDS011;9905;52.126;5.596;2023-08-17T00:39:22;3.00;;;2.13;;
19521;SDS011;9905;52.126;5.596;2023-08-17T00:41:49;2.90;;;2.70;;
19521;SDS011;9905;52.126;5.596;2023-08-17T00:44:16;2.83;;;2.63;;
19521;SDS011;9905;52.126;5.596;2023-08-17T00:46:43;2.38;;;2.17;;
19521;SDS011;9905;52.126;5.596;2023-08-17T00:49:10;2.70;;;2.40;;
19521;SDS011;9905;52.126;5.596;2023-08-17T00:51:37;2.92;;;2.67;;
19521;SDS011;9905;52.126;5.596;2023-08-17T00:54:04;2.85;;;2.63;;
19521;SDS011;9905;52.126;5.596;2023-08-17T00:56:32;2.53;;;2.40;;
19521;SDS011;9905;52.126;5.596;2023-08-17T00:58:59;3.70;;;2.33;;
19521;SDS011;9905;52.126;5.596;2023-08-17T01:01:27;2.70;;;2.50;;
19521;SDS011;9905;52.126;5.596;2023-08-17T01:03:53;3.08;;;2.83;;
19521;SDS011;9905;52.126;5.596;2023-08-17T01:06:20;2.20;;;2.10;;
19521;SDS011;9905;52.126;5.596;2023-08-17T01:08:47;2.47;;;2.38;;
19521;SDS011;9905;52.126;5.596;2023-08-17T01:11:19;2.63;;;2.40;;
19521;SDS011;9905;52.126;5.596;2023-08-17T01:13:55;2.50;;;2.30;;
19521;SDS011;9905;52.126;5.596;2023-08-17T01:16:27;2.50;;;2.30;;
19521;SDS011;9905;52.126;5.596;2023-08-17T01:18:59;2.33;;;2.00;;
19521;SDS011;9905;52.126;5.596;2023-08-17T01:21:30;4.45;;;2.42;;
19521;SDS011;9905;52.126;5.596;2023-08-17T01:24:04;2.95;;;2.72;;
19521;SDS011;9905;52.126;5.596;2023-08-17T01:26:31;2.70;;;2.50;;
19521;SDS011;9905;52.126;5.596;2023-08-17T01:28:58;2.42;;;2.28;;
19521;SDS011;9905;52.126;5.596;2023-08-17T01:31:27;4.03;;;2.22;;
19521;SDS011;9905;52.126;5.596;2023-08-17T01:33:59;2.08;;;1.98;;
19521;SDS011;9905;52.126;5.596;2023-08-17T01:36:33;2.80;;;2.33;;
19521;SDS011;9905;52.126;5.596;2023-08-17T01:39:04;2.20;;;2.10;;
19521;SDS011;9905;52.126;5.596;2023-08-17T01:41:33;2.63;;;2.42;;
19521;SDS011;9905;52.126;5.596;2023-08-17T01:44:01;4.60;;;2.30;;
19521;SDS011;9905;52.126;5.596;2023-08-17T01:46:30;4.47;;;2.35;;
19521;SDS011;9905;52.126;5.596;2023-08-17T01:48:57;3.55;;;2.50;;
19521;SDS011;9905;52.126;5.596;2023-08-17T01:51:24;2.55;;;2.35;;
19521;SDS011;9905;52.126;5.596;2023-08-17T01:53:51;2.83;;;2.35;;
19521;SDS011;9905;52.126;5.596;2023-08-17T01:56:20;3.20;;;2.60;;
19521;SDS011;9905;52.126;5.596;2023-08-17T01:58:47;3.28;;;2.45;;
19521;SDS011;9905;52.126;5.596;2023-08-17T02:01:13;2.40;;;2.30;;
19521;SDS011;9905;52.126;5.596;2023-08-17T02:03:40;2.78;;;2.40;;
19521;SDS011;9905;52.126;5.596;2023-08-17T02:06:07;3.00;;;2.30;;
19521;SDS011;9905;52.126;5.596;2023-08-17T02:08:36;3.55;;;2.60;;
19521;SDS011;9905;52.126;5.596;2023-08-17T02:11:04;2.67;;;2.08;;
19521;SDS011;9905;52.126;5.596;2023-08-17T02:13:32;2.50;;;2.40;;
19521;SDS011;9905;52.126;5.596;2023-08-17T02:15:59;2.67;;;2.50;;
19521;SDS011;9905;52.126;5.596;2023-08-17T02:18:26;2.72;;;2.58;;
19521;SDS011;9905;52.126;5.596;2023-08-17T02:20:56;4.22;;;2.60;;
19521;SDS011;9905;52.126;5.596;2023-08-17T02:23:23;3.83;;;2.58;;
19521;SDS011;9905;52.126;5.596;2023-08-17T02:25:50;3.45;;;2.95;;
19521;SDS011;9905;52.126;5.596;2023-08-17T02:28:17;6.60;;;2.58;;
19521;SDS011;9905;52.126;5.596;2023-08-17T02:37:26;2.85;;;2.65;;
19521;SDS011;9905;52.126;5.596;2023-08-17T02:39:53;4.65;;;2.83;;
19521;SDS011;9905;52.126;5.596;2023-08-17T02:42:19;2.58;;;2.20;;
19521;SDS011;9905;52.126;5.596;2023-08-17T02:44:46;3.40;;;2.70;;
19521;SDS011;9905;52.126;5.596;2023-08-17T02:47:13;2.65;;;2.55;;
19521;SDS011;9905;52.126;5.596;2023-08-17T02:49:40;3.45;;;2.70;;
19521;SDS011;9905;52.126;5.596;2023-08-17T02:52:09;3.00;;;2.50;;
19521;SDS011;9905;52.126;5.596;2023-08-17T02:54:36;2.67;;;2.47;;
19521;SDS011;9905;52.126;5.596;2023-08-17T02:57:04;2.53;;;2.42;;
19521;SDS011;9905;52.126;5.596;2023-08-17T02:59:31;3.17;;;2.78;;
19521;SDS011;9905;52.126;5.596;2023-08-17T03:01:58;6.47;;;2.63;;
19521;SDS011;9905;52.126;5.596;2023-08-17T03:04:25;2.67;;;2.58;;
19521;SDS011;9905;52.126;5.596;2023-08-17T03:06:54;2.50;;;2.30;;
19521;SDS011;9905;52.126;5.596;2023-08-17T03:09:23;3.13;;;2.83;;
19521;SDS011;9905;52.126;5.596;2023-08-17T03:11:49;5.07;;;2.25;;
19521;SDS011;9905;52.126;5.596;2023-08-17T03:14:18;2.90;;;2.35;;
19521;SDS011;9905;52.126;5.596;2023-08-17T03:16:45;2.33;;;2.17;;
19521;SDS011;9905;52.126;5.596;2023-08-17T03:19:12;4.00;;;2.40;;
19521;SDS011;9905;52.126;5.596;2023-08-17T03:21:39;2.90;;;2.53;;
19521;SDS011;9905;52.126;5.596;2023-08-17T03:24:06;2.65;;;2.42;;
19521;SDS011;9905;52.126;5.596;2023-08-17T03:26:34;3.33;;;2.60;;
19521;SDS011;9905;52.126;5.596;2023-08-17T03:29:01;2.60;;;2.28;;
19521;SDS011;9905;52.126;5.596;2023-08-17T03:31:30;2.80;;;2.60;;
19521;SDS011;9905;52.126;5.596;2023-08-17T03:33:57;3.90;;;2.28;;
19521;SDS011;9905;52.126;5.596;2023-08-17T03:36:25;2.53;;;2.42;;
19521;SDS011;9905;52.126;5.596;2023-08-17T03:38:52;2.53;;;2.40;;
19521;SDS011;9905;52.126;5.596;2023-08-17T03:41:20;2.85;;;2.70;;
19521;SDS011;9905;52.126;5.596;2023-08-17T03:43:50;3.10;;;2.67;;
19521;SDS011;9905;52.126;5.596;2023-08-17T03:46:26;2.95;;;2.55;;
19521;SDS011;9905;52.126;5.596;2023-08-17T03:48:53;2.80;;;2.60;;
19521;SDS011;9905;52.126;5.596;2023-08-17T03:51:19;6.50;;;3.05;;
19521;SDS011;9905;52.126;5.596;2023-08-17T03:53:46;3.22;;;2.60;;
19521;SDS011;9905;52.126;5.596;2023-08-17T03:56:13;3.20;;;2.90;;
19521;SDS011;9905;52.126;5.596;2023-08-17T03:58:40;3.35;;;2.47;;
19521;SDS011;9905;52.126;5.596;2023-08-17T04:01:10;4.25;;;2.60;;
19521;SDS011;9905;52.126;5.596;2023-08-17T04:03:38;3.70;;;2.50;;
19521;SDS011;9905;52.126;5.596;2023-08-17T04:06:05;2.83;;;2.58;;
19521;SDS011;9905;52.126;5.596;2023-08-17T04:08:32;2.90;;;2.70;;
19521;SDS011;9905;52.126;5.596;2023-08-17T04:10:59;2.90;;;2.80;;
19521;SDS011;9905;52.126;5.596;2023-08-17T04:13:26;2.95;;;2.75;;
19521;SDS011;9905;52.126;5.596;2023-08-17T04:15:53;4.05;;;2.92;;
19521;SDS011;9905;52.126;5.596;2023-08-17T04:18:22;2.60;;;2.38;;
19521;SDS011;9905;52.126;5.596;2023-08-17T04:20:49;3.20;;;2.72;;
19521;SDS011;9905;52.126;5.596;2023-08-17T04:23:16;6.72;;;2.70;;
19521;SDS011;9905;52.126;5.596;2023-08-17T04:25:43;2.50;;;2.30;;
19521;SDS011;9905;52.126;5.596;2023-08-17T04:28:10;3.45;;;2.85;;
19521;SDS011;9905;52.126;5.596;2023-08-17T04:30:37;2.50;;;2.30;;
19521;SDS011;9905;52.126;5.596;2023-08-17T04:33:04;4.13;;;2.60;;
19521;SDS011;9905;52.126;5.596;2023-08-17T04:35:34;3.47;;;2.80;;
19521;SDS011;9905;52.126;5.596;2023-08-17T04:38:00;2.72;;;2.38;;
19521;SDS011;9905;52.126;5.596;2023-08-17T04:40:27;2.45;;;2.30;;
19521;SDS011;9905;52.126;5.596;2023-08-17T04:42:54;2.63;;;2.42;;
19521;SDS011;9905;52.126;5.596;2023-08-17T04:45:22;2.70;;;2.50;;
19521;SDS011;9905;52.126;5.596;2023-08-17T04:47:49;2.03;;;1.92;;
19521;SDS011;9905;52.126;5.596;2023-08-17T04:50:16;2.72;;;2.40;;
19521;SDS011;9905;52.126;5.596;2023-08-17T04:52:44;2.97;;;2.78;;
19521;SDS011;9905;52.126;5.596;2023-08-17T04:55:12;5.30;;;2.40;;
19521;SDS011;9905;52.126;5.596;2023-08-17T04:57:39;2.60;;;2.40;;
19521;SDS011;9905;52.126;5.596;2023-08-17T05:00:07;6.00;;;2.47;;
19521;SDS011;9905;52.126;5.596;2023-08-17T05:02:34;2.65;;;2.45;;
19521;SDS011;9905;52.126;5.596;2023-08-17T05:05:02;4.35;;;2.53;;
19521;SDS011;9905;52.126;5.596;2023-08-17T05:07:30;2.47;;;2.30;;
19521;SDS011;9905;52.126;5.596;2023-08-17T05:09:58;3.38;;;2.30;;
19521;SDS011;9905;52.126;5.596;2023-08-17T05:12:25;2.50;;;2.30;;
19521;SDS011;9905;52.126;5.596;2023-08-17T05:14:52;2.40;;;2.20;;
19521;SDS011;9905;52.126;5.596;2023-08-17T05:17:19;2.80;;;2.58;;
19521;SDS011;9905;52.126;5.596;2023-08-17T05:19:46;4.40;;;2.78;;
19521;SDS011;9905;52.126;5.596;2023-08-17T05:22:13;2.40;;;2.20;;
19521;SDS011;9905;52.126;5.596;2023-08-17T05:24:40;2.78;;;2.58;;
19521;SDS011;9905;52.126;5.596;2023-08-17T05:27:08;2.55;;;2.45;;
19521;SDS011;9905;52.126;5.596;2023-08-17T05:29:35;5.95;;;2.53;;
19521;SDS011;9905;52.126;5.596;2023-08-17T05:32:02;2.92;;;2.72;;
19521;SDS011;9905;52.126;5.596;2023-08-17T05:34:29;2.63;;;2.30;;
19521;SDS011;9905;52.126;5.596;2023-08-17T05:36:56;4.07;;;2.70;;
19521;SDS011;9905;52.126;5.596;2023-08-17T05:39:23;2.80;;;2.60;;
19521;SDS011;9905;52.126;5.596;2023-08-17T05:41:50;4.75;;;2.50;;
19521;SDS011;9905;52.126;5.596;2023-08-17T05:44:18;2.55;;;2.45;;
19521;SDS011;9905;52.126;5.596;2023-08-17T05:46:45;3.95;;;2.17;;
19521;SDS011;9905;52.126;5.596;2023-08-17T05:49:13;4.13;;;2.50;;
19521;SDS011;9905;52.126;5.596;2023-08-17T05:51:40;2.80;;;2.40;;
19521;SDS011;9905;52.126;5.596;2023-08-17T05:54:10;3.45;;;2.63;;
19521;SDS011;9905;52.126;5.596;2023-08-17T05:56:59;4.20;;;3.05;;
19521;SDS011;9905;52.126;5.596;2023-08-17T06:02:12;2.80;;;2.63;;
19521;SDS011;9905;52.126;5.596;2023-08-17T06:04:39;2.50;;;2.40;;
19521;SDS011;9905;52.126;5.596;2023-08-17T06:07:06;2.75;;;2.47;;
19521;SDS011;9905;52.126;5.596;2023-08-17T06:09:33;3.28;;;2.97;;
19521;SDS011;9905;52.126;5.596;2023-08-17T06:12:00;3.30;;;3.10;;
19521;SDS011;9905;52.126;5.596;2023-08-17T06:14:27;2.80;;;2.60;;
19521;SDS011;9905;52.126;5.596;2023-08-17T06:16:56;3.63;;;3.33;;
19521;SDS011;9905;52.126;5.596;2023-08-17T06:19:22;3.53;;;3.08;;
19521;SDS011;9905;52.126;5.596;2023-08-17T06:21:49;4.78;;;3.15;;
19521;SDS011;9905;52.126;5.596;2023-08-17T06:24:24;3.30;;;3.10;;
19521;SDS011;9905;52.126;5.596;2023-08-17T06:27:01;3.75;;;2.90;;
19521;SDS011;9905;52.126;5.596;2023-08-17T06:29:29;3.50;;;2.88;;
19521;SDS011;9905;52.126;5.596;2023-08-17T06:32:11;3.38;;;2.67;;
19521;SDS011;9905;52.126;5.596;2023-08-17T06:34:38;3.00;;;2.80;;
19521;SDS011;9905;52.126;5.596;2023-08-17T06:37:05;3.08;;;2.47;;
19521;SDS011;9905;52.126;5.596;2023-08-17T06:39:32;3.97;;;2.50;;
19521;SDS011;9905;52.126;5.596;2023-08-17T06:41:58;3.22;;;2.58;;
19521;SDS011;9905;52.126;5.596;2023-08-17T06:44:25;6.80;;;2.90;;
19521;SDS011;9905;52.126;5.596;2023-08-17T06:46:52;3.65;;;3.38;;
19521;SDS011;9905;52.126;5.596;2023-08-17T06:49:20;3.72;;;2.75;;
19521;SDS011;9905;52.126;5.596;2023-08-17T06:51:47;3.10;;;2.90;;
19521;SDS011;9905;52.126;5.596;2023-08-17T06:54:14;3.15;;;2.88;;
19521;SDS011;9905;52.126;5.596;2023-08-17T06:56:40;3.08;;;2.83;;
19521;SDS011;9905;52.126;5.596;2023-08-17T06:59:07;4.13;;;2.95;;
19521;SDS011;9905;52.126;5.596;2023-08-17T07:01:37;2.90;;;2.75;;
19521;SDS011;9905;52.126;5.596;2023-08-17T07:04:04;2.92;;;2.47;;
19521;SDS011;9905;52.126;5.596;2023-08-17T07:06:33;3.05;;;2.85;;
19521;SDS011;9905;52.126;5.596;2023-08-17T07:09:00;3.28;;;2.58;;
19521;SDS011;9905;52.126;5.596;2023-08-17T07:11:30;2.75;;;2.63;;
19521;SDS011;9905;52.126;5.596;2023-08-17T07:13:56;4.30;;;3.00;;
19521;SDS011;9905;52.126;5.596;2023-08-17T07:16:23;3.65;;;2.47;;
19521;SDS011;9905;52.126;5.596;2023-08-17T07:18:53;4.90;;;3.00;;
19521;SDS011;9905;52.126;5.596;2023-08-17T07:21:20;3.58;;;3.38;;
19521;SDS011;9905;52.126;5.596;2023-08-17T07:23:49;3.28;;;2.90;;
19521;SDS011;9905;52.126;5.596;2023-08-17T07:26:18;3.47;;;2.30;;
19521;SDS011;9905;52.126;5.596;2023-08-17T07:28:45;4.10;;;2.70;;
19521;SDS011;9905;52.126;5.596;2023-08-17T07:31:12;2.88;;;2.67;;
19521;SDS011;9905;52.126;5.596;2023-08-17T07:33:39;3.15;;;2.95;;
19521;SDS011;9905;52.126;5.596;2023-08-17T07:36:06;2.90;;;2.75;;
19521;SDS011;9905;52.126;5.596;2023-08-17T07:38:42;3.10;;;2.90;;
19521;SDS011;9905;52.126;5.596;2023-08-17T07:41:10;2.95;;;2.55;;
19521;SDS011;9905;52.126;5.596;2023-08-17T07:46:29;3.03;;;2.50;;
19521;SDS011;9905;52.126;5.596;2023-08-17T07:48:56;3.72;;;3.42;;
19521;SDS011;9905;52.126;5.596;2023-08-17T07:51:23;4.78;;;2.70;;
19521;SDS011;9905;52.126;5.596;2023-08-17T07:53:49;2.88;;;2.78;;
19521;SDS011;9905;52.126;5.596;2023-08-17T07:56:18;2.95;;;2.63;;
19521;SDS011;9905;52.126;5.596;2023-08-17T07:58:48;3.95;;;2.83;;
19521;SDS011;9905;52.126;5.596;2023-08-17T08:01:25;4.03;;;3.28;;
19521;SDS011;9905;52.126;5.596;2023-08-17T08:03:52;3.17;;;2.97;;
19521;SDS011;9905;52.126;5.596;2023-08-17T08:06:20;3.22;;;2.88;;
19521;SDS011;9905;52.126;5.596;2023-08-17T08:08:50;7.03;;;2.80;;
19521;SDS011;9905;52.126;5.596;2023-08-17T08:14:03;2.78;;;2.58;;
19521;SDS011;9905;52.126;5.596;2023-08-17T08:16:31;2.90;;;2.70;;
19521;SDS011;9905;52.126;5.596;2023-08-17T08:19:00;2.65;;;2.45;;
19521;SDS011;9905;52.126;5.596;2023-08-17T08:21:32;4.07;;;2.58;;
19521;SDS011;9905;52.126;5.596;2023-08-17T08:23:59;3.15;;;2.45;;
19521;SDS011;9905;52.126;5.596;2023-08-17T08:26:26;4.50;;;2.63;;
19521;SDS011;9905;52.126;5.596;2023-08-17T08:28:54;3.17;;;2.40;;
19521;SDS011;9905;52.126;5.596;2023-08-17T08:31:24;3.50;;;2.63;;
19521;SDS011;9905;52.126;5.596;2023-08-17T08:33:51;4.95;;;3.08;;
19521;SDS011;9905;52.126;5.596;2023-08-17T08:36:24;2.65;;;2.40;;
19521;SDS011;9905;52.126;5.596;2023-08-17T08:38:55;3.33;;;2.60;;
19521;SDS011;9905;52.126;5.596;2023-08-17T08:41:22;3.42;;;2.30;;
19521;SDS011;9905;52.126;5.596;2023-08-17T08:43:52;6.28;;;2.92;;
19521;SDS011;9905;52.126;5.596;2023-08-17T08:46:29;4.18;;;2.80;;
19521;SDS011;9905;52.126;5.596;2023-08-17T08:49:08;2.60;;;2.50;;
19521;SDS011;9905;52.126;5.596;2023-08-17T08:51:37;3.38;;;2.60;;
19521;SDS011;9905;52.126;5.596;2023-08-17T08:54:08;2.97;;;2.67;;
19521;SDS011;9905;52.126;5.596;2023-08-17T08:56:44;3.67;;;2.70;;
19521;SDS011;9905;52.126;5.596;2023-08-17T08:59:19;3.30;;;2.53;;
19521;SDS011;9905;52.126;5.596;2023-08-17T09:01:50;3.90;;;2.38;;
19521;SDS011;9905;52.126;5.596;2023-08-17T09:04:17;2.90;;;2.80;;
19521;SDS011;9905;52.126;5.596;2023-08-17T09:06:50;3.88;;;2.83;;
19521;SDS011;9905;52.126;5.596;2023-08-17T09:09:30;2.83;;;2.63;;
19521;SDS011;9905;52.126;5.596;2023-08-17T09:11:57;3.40;;;3.08;;
19521;SDS011;9905;52.126;5.596;2023-08-17T09:14:26;4.53;;;3.08;;
19521;SDS011;9905;52.126;5.596;2023-08-17T09:16:53;3.60;;;2.90;;
19521;SDS011;9905;52.126;5.596;2023-08-17T09:19:20;4.13;;;3.05;;
19521;SDS011;9905;52.126;5.596;2023-08-17T09:22:04;4.82;;;3.17;;
19521;SDS011;9905;52.126;5.596;2023-08-17T09:24:34;3.35;;;2.85;;
19521;SDS011;9905;52.126;5.596;2023-08-17T09:27:02;3.78;;;2.67;;
19521;SDS011;9905;52.126;5.596;2023-08-17T09:29:31;3.65;;;2.90;;
19521;SDS011;9905;52.126;5.596;2023-08-17T09:32:03;3.72;;;3.42;;
19521;SDS011;9905;52.126;5.596;2023-08-17T09:34:31;4.20;;;3.25;;
19521;SDS011;9905;52.126;5.596;2023-08-17T09:37:02;5.68;;;3.63;;
19521;SDS011;9905;52.126;5.596;2023-08-17T09:39:29;4.65;;;3.85;;
19521;SDS011;9905;52.126;5.596;2023-08-17T09:41:56;5.82;;;3.30;;
19521;SDS011;9905;52.126;5.596;2023-08-17T09:44:23;5.13;;;3.10;;
19521;SDS011;9905;52.126;5.596;2023-08-17T09:46:51;5.45;;;3.67;;
19521;SDS011;9905;52.126;5.596;2023-08-17T09:49:22;5.60;;;3.13;;
19521;SDS011;9905;52.126;5.596;2023-08-17T09:51:49;6.60;;;3.47;;
19521;SDS011;9905;52.126;5.596;2023-08-17T09:54:20;5.10;;;3.33;;
19521;SDS011;9905;52.126;5.596;2023-08-17T09:56:50;4.43;;;3.53;;
19521;SDS011;9905;52.126;5.596;2023-08-17T09:59:17;3.22;;;2.97;;
19521;SDS011;9905;52.126;5.596;2023-08-17T10:01:54;3.60;;;3.30;;
19521;SDS011;9905;52.126;5.596;2023-08-17T10:04:27;7.70;;;3.50;;
19521;SDS011;9905;52.126;5.596;2023-08-17T10:07:00;5.68;;;3.42;;
19521;SDS011;9905;52.126;5.596;2023-08-17T10:09:31;5.35;;;3.65;;
19521;SDS011;9905;52.126;5.596;2023-08-17T10:12:06;4.75;;;3.50;;
19521;SDS011;9905;52.126;5.596;2023-08-17T10:14:39;4.00;;;3.35;;
19521;SDS011;9905;52.126;5.596;2023-08-17T10:17:14;3.90;;;3.60;;
19521;SDS011;9905;52.126;5.596;2023-08-17T10:19:46;3.53;;;3.33;;
19521;SDS011;9905;52.126;5.596;2023-08-17T10:22:18;3.42;;;3.13;;
19521;SDS011;9905;52.126;5.596;2023-08-17T10:24:49;3.45;;;3.22;;
19521;SDS011;9905;52.126;5.596;2023-08-17T10:27:20;3.97;;;3.22;;
19521;SDS011;9905;52.126;5.596;2023-08-17T10:29:47;4.07;;;3.63;;
19521;SDS011;9905;52.126;5.596;2023-08-17T10:32:20;3.40;;;3.17;;
19521;SDS011;9905;52.126;5.596;2023-08-17T10:34:48;4.25;;;3.60;;
19521;SDS011;9905;52.126;5.596;2023-08-17T10:37:17;3.75;;;3.45;;
19521;SDS011;9905;52.126;5.596;2023-08-17T10:39:45;3.63;;;3.13;;
19521;SDS011;9905;52.126;5.596;2023-08-17T10:42:12;3.90;;;2.92;;
19521;SDS011;9905;52.126;5.596;2023-08-17T10:44:46;5.30;;;3.85;;
19521;SDS011;9905;52.126;5.596;2023-08-17T10:47:23;6.30;;;3.70;;
19521;SDS011;9905;52.126;5.596;2023-08-17T10:49:55;5.03;;;4.30;;
19521;SDS011;9905;52.126;5.596;2023-08-17T10:52:26;4.63;;;3.85;;
19521;SDS011;9905;52.126;5.596;2023-08-17T10:54:59;3.80;;;3.42;;
19521;SDS011;9905;52.126;5.596;2023-08-17T10:57:33;7.78;;;3.78;;
19521;SDS011;9905;52.126;5.596;2023-08-17T11:00:08;4.15;;;3.85;;
19521;SDS011;9905;52.126;5.596;2023-08-17T11:02:55;4.47;;;4.00;;
19521;SDS011;9905;52.126;5.596;2023-08-17T11:08:22;4.38;;;3.65;;
19521;SDS011;9905;52.126;5.596;2023-08-17T11:11:05;5.60;;;3.95;;
19521;SDS011;9905;52.126;5.596;2023-08-17T11:13:37;4.32;;;3.65;;
19521;SDS011;9905;52.126;5.596;2023-08-17T11:16:09;3.53;;;3.17;;
19521;SDS011;9905;52.126;5.596;2023-08-17T11:18:44;5.28;;;3.80;;
19521;SDS011;9905;52.126;5.596;2023-08-17T11:21:32;5.45;;;3.53;;
19521;SDS011;9905;52.126;5.596;2023-08-17T11:23:59;4.18;;;3.88;;
19521;SDS011;9905;52.126;5.596;2023-08-17T11:26:26;4.55;;;3.50;;
19521;SDS011;9905;52.126;5.596;2023-08-17T11:28:54;4.90;;;3.50;;
19521;SDS011;9905;52.126;5.596;2023-08-17T11:31:35;4.22;;;3.28;;
19521;SDS011;9905;52.126;5.596;2023-08-17T11:34:08;5.63;;;4.20;;
19521;SDS011;9905;52.126;5.596;2023-08-17T11:36:40;6.80;;;3.42;;
19521;SDS011;9905;52.126;5.596;2023-08-17T11:39:07;4.28;;;3.85;;
19521;SDS011;9905;52.126;5.596;2023-08-17T11:41:54;4.07;;;3.70;;
19521;SDS011;9905;52.126;5.596;2023-08-17T11:44:24;5.97;;;4.35;;
19521;SDS011;9905;52.126;5.596;2023-08-17T11:49:38;4.18;;;3.78;;
19521;SDS011;9905;52.126;5.596;2023-08-17T11:52:09;3.58;;;3.30;;
19521;SDS011;9905;52.126;5.596;2023-08-17T11:54:45;5.53;;;3.33;;
19521;SDS011;9905;52.126;5.596;2023-08-17T11:57:12;4.55;;;3.47;;
19521;SDS011;9905;52.126;5.596;2023-08-17T11:59:39;3.00;;;2.80;;
19521;SDS011;9905;52.126;5.596;2023-08-17T12:02:06;3.53;;;3.25;;
19521;SDS011;9905;52.126;5.596;2023-08-17T12:04:33;4.75;;;3.55;;
19521;SDS011;9905;52.126;5.596;2023-08-17T12:07:02;3.30;;;3.10;;
19521;SDS011;9905;52.126;5.596;2023-08-17T12:09:29;5.93;;;4.10;;
19521;SDS011;9905;52.126;5.596;2023-08-17T12:11:59;3.65;;;3.30;;
19521;SDS011;9905;52.126;5.596;2023-08-17T12:14:26;3.90;;;3.30;;
19521;SDS011;9905;52.126;5.596;2023-08-17T12:16:54;3.75;;;3.42;;
19521;SDS011;9905;52.126;5.596;2023-08-17T12:19:21;3.42;;;3.22;;
19521;SDS011;9905;52.126;5.596;2023-08-17T12:21:50;4.00;;;3.25;;
19521;SDS011;9905;52.126;5.596;2023-08-17T12:24:19;3.90;;;3.50;;
19521;SDS011;9905;52.126;5.596;2023-08-17T12:26:46;3.80;;;3.50;;
19521;SDS011;9905;52.126;5.596;2023-08-17T12:29:13;3.60;;;3.40;;
19521;SDS011;9905;52.126;5.596;2023-08-17T12:31:40;3.45;;;3.00;;
19521;SDS011;9905;52.126;5.596;2023-08-17T12:34:07;3.45;;;3.25;;
19521;SDS011;9905;52.126;5.596;2023-08-17T12:36:34;4.32;;;3.42;;
19521;SDS011;9905;52.126;5.596;2023-08-17T12:39:02;3.80;;;3.47;;
19521;SDS011;9905;52.126;5.596;2023-08-17T12:41:32;3.70;;;3.50;;
19521;SDS011;9905;52.126;5.596;2023-08-17T12:43:59;5.28;;;3.63;;
19521;SDS011;9905;52.126;5.596;2023-08-17T12:46:26;4.10;;;3.78;;
19521;SDS011;9905;52.126;5.596;2023-08-17T12:48:58;3.72;;;3.42;;
19521;SDS011;9905;52.126;5.596;2023-08-17T12:51:31;4.22;;;3.63;;
19521;SDS011;9905;52.126;5.596;2023-08-17T12:53:58;3.63;;;3.33;;
19521;SDS011;9905;52.126;5.596;2023-08-17T12:56:28;3.90;;;3.60;;
19521;SDS011;9905;52.126;5.596;2023-08-17T12:58:56;3.70;;;3.47;;
19521;SDS011;9905;52.126;5.596;2023-08-17T13:01:25;7.57;;;3.80;;
19521;SDS011;9905;52.126;5.596;2023-08-17T13:03:52;4.45;;;3.65;;
19521;SDS011;9905;52.126;5.596;2023-08-17T13:06:21;3.63;;;3.35;;
19521;SDS011;9905;52.126;5.596;2023-08-17T13:08:48;4.65;;;3.60;;
19521;SDS011;9905;52.126;5.596;2023-08-17T13:11:15;3.65;;;3.45;;
19521;SDS011;9905;52.126;5.596;2023-08-17T13:13:42;3.70;;;3.40;;
19521;SDS011;9905;52.126;5.596;2023-08-17T13:16:10;4.40;;;4.05;;
19521;SDS011;9905;52.126;5.596;2023-08-17T13:18:37;4.82;;;4.53;;
19521;SDS011;9905;52.126;5.596;2023-08-17T13:21:04;4.45;;;4.05;;
19521;SDS011;9905;52.126;5.596;2023-08-17T13:23:31;5.13;;;4.43;;
19521;SDS011;9905;52.126;5.596;2023-08-17T13:25:58;3.88;;;3.60;;
19521;SDS011;9905;52.126;5.596;2023-08-17T13:28:24;4.32;;;4.03;;
19521;SDS011;9905;52.126;5.596;2023-08-17T13:30:54;3.50;;;3.10;;
19521;SDS011;9905;52.126;5.596;2023-08-17T13:33:24;3.55;;;3.30;;
19521;SDS011;9905;52.126;5.596;2023-08-17T13:35:51;3.67;;;3.25;;
19521;SDS011;9905;52.126;5.596;2023-08-17T13:38:28;4.10;;;3.80;;
19521;SDS011;9905;52.126;5.596;2023-08-17T13:40:55;3.90;;;3.70;;
19521;SDS011;9905;52.126;5.596;2023-08-17T13:43:24;4.60;;;4.18;;
19521;SDS011;9905;52.126;5.596;2023-08-17T13:45:57;3.75;;;3.45;;
19521;SDS011;9905;52.126;5.596;2023-08-17T13:48:27;3.97;;;3.72;;
19521;SDS011;9905;52.126;5.596;2023-08-17T13:50:54;4.13;;;3.83;;
19521;SDS011;9905;52.126;5.596;2023-08-17T13:53:20;4.43;;;4.10;;
19521;SDS011;9905;52.126;5.596;2023-08-17T13:55:47;3.83;;;3.47;;
19521;SDS011;9905;52.126;5.596;2023-08-17T13:58:14;4.30;;;3.92;;
19521;SDS011;9905;52.126;5.596;2023-08-17T14:00:44;4.57;;;3.67;;
19521;SDS011;9905;52.126;5.596;2023-08-17T14:03:11;4.13;;;3.75;;
19521;SDS011;9905;52.126;5.596;2023-08-17T14:05:39;4.22;;;3.90;;
19521;SDS011;9905;52.126;5.596;2023-08-17T14:08:06;4.60;;;4.22;;
19521;SDS011;9905;52.126;5.596;2023-08-17T14:10:36;4.00;;;3.60;;
19521;SDS011;9905;52.126;5.596;2023-08-17T14:13:02;4.85;;;4.35;;
19521;SDS011;9905;52.126;5.596;2023-08-17T14:15:29;4.30;;;4.00;;
19521;SDS011;9905;52.126;5.596;2023-08-17T14:17:56;4.90;;;4.47;;
19521;SDS011;9905;52.126;5.596;2023-08-17T14:20:23;4.55;;;4.15;;
19521;SDS011;9905;52.126;5.596;2023-08-17T14:22:52;4.43;;;4.03;;
19521;SDS011;9905;52.126;5.596;2023-08-17T14:25:21;4.47;;;4.07;;
19521;SDS011;9905;52.126;5.596;2023-08-17T14:27:48;5.20;;;4.38;;
19521;SDS011;9905;52.126;5.596;2023-08-17T14:30:15;4.32;;;4.05;;
19521;SDS011;9905;52.126;5.596;2023-08-17T14:32:43;5.00;;;3.80;;
19521;SDS011;9905;52.126;5.596;2023-08-17T14:35:10;3.85;;;3.55;;
19521;SDS011;9905;52.126;5.596;2023-08-17T14:37:36;4.50;;;4.20;;
19521;SDS011;9905;52.126;5.596;2023-08-17T14:40:05;4.43;;;4.13;;
19521;SDS011;9905;52.126;5.596;2023-08-17T14:42:33;4.78;;;4.47;;
19521;SDS011;9905;52.126;5.596;2023-08-17T14:45:00;4.30;;;3.90;;
19521;SDS011;9905;52.126;5.596;2023-08-17T14:47:27;4.78;;;4.38;;
19521;SDS011;9905;52.126;5.596;2023-08-17T14:49:53;4.55;;;4.07;;
19521;SDS011;9905;52.126;5.596;2023-08-17T14:52:21;6.55;;;4.15;;
19521;SDS011;9905;52.126;5.596;2023-08-17T14:54:47;4.28;;;4.03;;
19521;SDS011;9905;52.126;5.596;2023-08-17T14:57:16;5.30;;;4.90;;
19521;SDS011;9905;52.126;5.596;2023-08-17T14:59:43;5.07;;;4.63;;
19521;SDS011;9905;52.126;5.596;2023-08-17T15:02:09;5.00;;;4.60;;
19521;SDS011;9905;52.126;5.596;2023-08-17T15:04:43;4.25;;;4.00;;
19521;SDS011;9905;52.126;5.596;2023-08-17T15:07:22;4.88;;;4.53;;
19521;SDS011;9905;52.126;5.596;2023-08-17T15:09:49;4.72;;;4.43;;
19521;SDS011;9905;52.126;5.596;2023-08-17T15:12:17;5.40;;;4.57;;
19521;SDS011;9905;52.126;5.596;2023-08-17T15:15:04;5.07;;;4.68;;
19521;SDS011;9905;52.126;5.596;2023-08-17T15:17:38;5.63;;;4.60;;
19521;SDS011;9905;52.126;5.596;2023-08-17T15:20:08;5.18;;;4.78;;
19521;SDS011;9905;52.126;5.596;2023-08-17T15:22:35;4.88;;;4.47;;
19521;SDS011;9905;52.126;5.596;2023-08-17T15:25:02;4.82;;;4.53;;
19521;SDS011;9905;52.126;5.596;2023-08-17T15:27:31;5.18;;;4.88;;
19521;SDS011;9905;52.126;5.596;2023-08-17T15:29:59;4.88;;;4.57;;
19521;SDS011;9905;52.126;5.596;2023-08-17T15:32:30;4.95;;;4.45;;